sensor_id;sensor_type;location;lat;lon;timestamp;temperature;humidity
75363;DHT22;64122;51.988;5.892;2023-11-21T00:00:25;10.42;76.21
75363;DHT22;64122;51.988;5.892;2023-11-21T00:02:56;10.42;76.15
75363;DHT22;64122;51.988;5.892;2023-11-21T00:05:26;10.44;76.14
75363;DHT22;64122;51.988;5.892;2023-11-21T00:07:55;10.48;76.11
75363;DHT22;64122;51.988;5.892;2023-11-21T00:10:24;10.45;76.09
75363;DHT22;64122;51.988;5.892;2023-11-21T00:12:54;10.46;76.15
75363;DHT22;64122;51.988;5.892;2023-11-21T00:15:24;10.46;76.12
75363;DHT22;64122;51.988;5.892;2023-11-21T00:17:55;10.45;75.97
75363;DHT22;64122;51.988;5.892;2023-11-21T00:20:25;10.46;75.83
75363;DHT22;64122;51.988;5.892;2023-11-21T00:22:54;10.46;75.91
75363;DHT22;64122;51.988;5.892;2023-11-21T00:25:23;10.46;75.77
75363;DHT22;64122;51.988;5.892;2023-11-21T00:27:52;10.46;75.76
75363;DHT22;64122;51.988;5.892;2023-11-21T00:30:21;10.48;75.70
75363;DHT22;64122;51.988;5.892;2023-11-21T00:32:50;10.43;75.70
75363;DHT22;64122;51.988;5.892;2023-11-21T00:35:23;10.37;75.74
75363;DHT22;64122;51.988;5.892;2023-11-21T00:37:52;10.36;75.79
75363;DHT22;64122;51.988;5.892;2023-11-21T00:40:21;10.36;75.87
75363;DHT22;64122;51.988;5.892;2023-11-21T00:42:51;10.37;75.86
75363;DHT22;64122;51.988;5.892;2023-11-21T00:45:20;10.37;75.82
75363;DHT22;64122;51.988;5.892;2023-11-21T00:47:49;10.39;75.81
75363;DHT22;64122;51.988;5.892;2023-11-21T00:50:18;10.40;75.86
75363;DHT22;64122;51.988;5.892;2023-11-21T00:52:50;10.42;75.81
75363;DHT22;64122;51.988;5.892;2023-11-21T00:55:20;10.48;75.79
75363;DHT22;64122;51.988;5.892;2023-11-21T00:57:51;10.50;75.76
75363;DHT22;64122;51.988;5.892;2023-11-21T01:00:20;10.56;75.68
75363;DHT22;64122;51.988;5.892;2023-11-21T01:02:49;10.62;75.62
75363;DHT22;64122;51.988;5.892;2023-11-21T01:05:18;10.65;75.58
75363;DHT22;64122;51.988;5.892;2023-11-21T01:07:51;10.70;75.50
75363;DHT22;64122;51.988;5.892;2023-11-21T01:10:20;10.72;75.48
75363;DHT22;64122;51.988;5.892;2023-11-21T01:12:49;10.75;75.50
75363;DHT22;64122;51.988;5.892;2023-11-21T01:15:18;10.77;75.56
75363;DHT22;64122;51.988;5.892;2023-11-21T01:17:48;10.78;75.57
75363;DHT22;64122;51.988;5.892;2023-11-21T01:20:17;10.78;75.63
75363;DHT22;64122;51.988;5.892;2023-11-21T01:22:47;10.77;75.65
75363;DHT22;64122;51.988;5.892;2023-11-21T01:25:19;10.77;75.66
75363;DHT22;64122;51.988;5.892;2023-11-21T01:27:49;10.77;75.73
75363;DHT22;64122;51.988;5.892;2023-11-21T01:30:19;10.78;75.73
75363;DHT22;64122;51.988;5.892;2023-11-21T01:32:48;10.78;75.76
75363;DHT22;64122;51.988;5.892;2023-11-21T01:35:17;10.79;75.64
75363;DHT22;64122;51.988;5.892;2023-11-21T01:37:46;10.82;75.66
75363;DHT22;64122;51.988;5.892;2023-11-21T01:40:15;10.85;75.58
75363;DHT22;64122;51.988;5.892;2023-11-21T01:42:47;10.85;75.50
75363;DHT22;64122;51.988;5.892;2023-11-21T01:45:16;10.86;75.55
75363;DHT22;64122;51.988;5.892;2023-11-21T01:47:46;10.88;75.52
75363;DHT22;64122;51.988;5.892;2023-11-21T01:50:16;10.89;75.44
75363;DHT22;64122;51.988;5.892;2023-11-21T01:52:46;10.88;75.49
75363;DHT22;64122;51.988;5.892;2023-11-21T01:55:17;10.89;75.43
75363;DHT22;64122;51.988;5.892;2023-11-21T01:57:50;10.90;75.39
75363;DHT22;64122;51.988;5.892;2023-11-21T02:00:19;10.92;75.40
75363;DHT22;64122;51.988;5.892;2023-11-21T02:02:49;10.92;75.29
75363;DHT22;64122;51.988;5.892;2023-11-21T02:05:19;10.89;75.38
75363;DHT22;64122;51.988;5.892;2023-11-21T02:07:48;10.88;75.46
75363;DHT22;64122;51.988;5.892;2023-11-21T02:10:18;10.87;75.47
75363;DHT22;64122;51.988;5.892;2023-11-21T02:12:51;10.86;75.40
75363;DHT22;64122;51.988;5.892;2023-11-21T02:15:22;10.83;75.54
75363;DHT22;64122;51.988;5.892;2023-11-21T02:17:55;10.82;75.55
75363;DHT22;64122;51.988;5.892;2023-11-21T02:20:25;10.83;75.56
75363;DHT22;64122;51.988;5.892;2023-11-21T02:22:58;10.81;75.48
75363;DHT22;64122;51.988;5.892;2023-11-21T02:25:29;10.80;75.52
75363;DHT22;64122;51.988;5.892;2023-11-21T02:28:01;10.79;75.57
75363;DHT22;64122;51.988;5.892;2023-11-21T02:30:30;10.80;75.57
75363;DHT22;64122;51.988;5.892;2023-11-21T02:33:00;10.77;75.67
75363;DHT22;64122;51.988;5.892;2023-11-21T02:35:29;10.79;75.62
75363;DHT22;64122;51.988;5.892;2023-11-21T02:38:01;10.80;75.57
75363;DHT22;64122;51.988;5.892;2023-11-21T02:40:30;10.79;75.60
75363;DHT22;64122;51.988;5.892;2023-11-21T02:42:59;10.81;75.60
75363;DHT22;64122;51.988;5.892;2023-11-21T02:45:29;10.84;75.57
75363;DHT22;64122;51.988;5.892;2023-11-21T02:47:58;10.83;75.57
75363;DHT22;64122;51.988;5.892;2023-11-21T02:50:27;10.85;75.52
75363;DHT22;64122;51.988;5.892;2023-11-21T02:52:56;10.89;75.35
75363;DHT22;64122;51.988;5.892;2023-11-21T02:55:29;10.90;75.31
75363;DHT22;64122;51.988;5.892;2023-11-21T02:58:00;10.92;75.39
75363;DHT22;64122;51.988;5.892;2023-11-21T03:00:29;10.89;75.47
75363;DHT22;64122;51.988;5.892;2023-11-21T03:02:59;10.89;75.49
75363;DHT22;64122;51.988;5.892;2023-11-21T03:05:30;10.88;75.60
75363;DHT22;64122;51.988;5.892;2023-11-21T03:08:01;10.87;75.61
75363;DHT22;64122;51.988;5.892;2023-11-21T03:10:34;10.86;75.57
75363;DHT22;64122;51.988;5.892;2023-11-21T03:13:03;10.86;75.63
75363;DHT22;64122;51.988;5.892;2023-11-21T03:15:33;10.86;75.63
75363;DHT22;64122;51.988;5.892;2023-11-21T03:18:02;10.85;75.75
75363;DHT22;64122;51.988;5.892;2023-11-21T03:20:31;10.84;75.69
75363;DHT22;64122;51.988;5.892;2023-11-21T03:23:01;10.81;75.77
75363;DHT22;64122;51.988;5.892;2023-11-21T03:25:33;10.82;75.72
75363;DHT22;64122;51.988;5.892;2023-11-21T03:28:03;10.86;75.67
75363;DHT22;64122;51.988;5.892;2023-11-21T03:30:33;10.85;75.66
75363;DHT22;64122;51.988;5.892;2023-11-21T03:33:02;10.87;75.54
75363;DHT22;64122;51.988;5.892;2023-11-21T03:35:31;10.92;75.37
75363;DHT22;64122;51.988;5.892;2023-11-21T03:38:01;10.93;75.34
75363;DHT22;64122;51.988;5.892;2023-11-21T03:40:33;10.93;75.26
75363;DHT22;64122;51.988;5.892;2023-11-21T03:43:02;10.93;75.44
75363;DHT22;64122;51.988;5.892;2023-11-21T03:45:32;10.94;75.50
75363;DHT22;64122;51.988;5.892;2023-11-21T03:48:01;10.94;75.53
75363;DHT22;64122;51.988;5.892;2023-11-21T03:50:30;10.97;75.49
75363;DHT22;64122;51.988;5.892;2023-11-21T03:52:59;10.98;75.47
75363;DHT22;64122;51.988;5.892;2023-11-21T03:55:30;10.97;75.49
75363;DHT22;64122;51.988;5.892;2023-11-21T03:58:01;10.95;75.45
75363;DHT22;64122;51.988;5.892;2023-11-21T04:00:31;10.97;75.50
75363;DHT22;64122;51.988;5.892;2023-11-21T04:03:00;10.99;75.47
75363;DHT22;64122;51.988;5.892;2023-11-21T04:05:29;10.99;75.48
75363;DHT22;64122;51.988;5.892;2023-11-21T04:07:58;10.98;75.46
75363;DHT22;64122;51.988;5.892;2023-11-21T04:10:27;10.99;75.43
75363;DHT22;64122;51.988;5.892;2023-11-21T04:12:56;10.98;75.44
75363;DHT22;64122;51.988;5.892;2023-11-21T04:15:29;10.96;75.36
75363;DHT22;64122;51.988;5.892;2023-11-21T04:17:58;10.95;75.39
75363;DHT22;64122;51.988;5.892;2023-11-21T04:20:27;10.97;75.41
75363;DHT22;64122;51.988;5.892;2023-11-21T04:22:57;10.99;75.35
75363;DHT22;64122;51.988;5.892;2023-11-21T04:25:26;10.99;75.34
75363;DHT22;64122;51.988;5.892;2023-11-21T04:27:55;10.98;75.37
75363;DHT22;64122;51.988;5.892;2023-11-21T04:30:24;10.99;75.41
75363;DHT22;64122;51.988;5.892;2023-11-21T04:32:56;10.98;75.34
75363;DHT22;64122;51.988;5.892;2023-11-21T04:35:25;10.98;75.24
75363;DHT22;64122;51.988;5.892;2023-11-21T04:37:54;10.97;75.25
75363;DHT22;64122;51.988;5.892;2023-11-21T04:40:23;10.96;75.23
75363;DHT22;64122;51.988;5.892;2023-11-21T04:42:53;10.93;75.28
75363;DHT22;64122;51.988;5.892;2023-11-21T04:45:23;10.94;75.22
75363;DHT22;64122;51.988;5.892;2023-11-21T04:47:52;10.93;75.17
75363;DHT22;64122;51.988;5.892;2023-11-21T04:50:24;10.93;74.90
75363;DHT22;64122;51.988;5.892;2023-11-21T04:52:54;10.95;74.89
75363;DHT22;64122;51.988;5.892;2023-11-21T04:55:24;10.94;74.87
75363;DHT22;64122;51.988;5.892;2023-11-21T04:57:54;10.94;75.00
75363;DHT22;64122;51.988;5.892;2023-11-21T05:00:23;10.93;74.99
75363;DHT22;64122;51.988;5.892;2023-11-21T05:02:52;10.94;75.09
75363;DHT22;64122;51.988;5.892;2023-11-21T05:05:24;10.93;75.07
75363;DHT22;64122;51.988;5.892;2023-11-21T05:07:53;10.94;75.16
75363;DHT22;64122;51.988;5.892;2023-11-21T05:10:22;10.94;75.15
75363;DHT22;64122;51.988;5.892;2023-11-21T05:12:51;10.94;75.18
75363;DHT22;64122;51.988;5.892;2023-11-21T05:15:21;10.94;75.18
75363;DHT22;64122;51.988;5.892;2023-11-21T05:17:51;10.94;75.19
75363;DHT22;64122;51.988;5.892;2023-11-21T05:20:23;10.95;75.23
75363;DHT22;64122;51.988;5.892;2023-11-21T05:22:53;10.96;75.18
75363;DHT22;64122;51.988;5.892;2023-11-21T05:25:22;10.95;75.25
75363;DHT22;64122;51.988;5.892;2023-11-21T05:27:51;10.94;75.23
75363;DHT22;64122;51.988;5.892;2023-11-21T05:30:21;10.95;75.28
75363;DHT22;64122;51.988;5.892;2023-11-21T05:32:50;10.97;75.18
75363;DHT22;64122;51.988;5.892;2023-11-21T05:35:19;10.98;75.09
75363;DHT22;64122;51.988;5.892;2023-11-21T05:37:51;10.99;75.05
75363;DHT22;64122;51.988;5.892;2023-11-21T05:40:20;11.00;75.03
75363;DHT22;64122;51.988;5.892;2023-11-21T05:42:52;11.00;75.09
75363;DHT22;64122;51.988;5.892;2023-11-21T05:45:22;11.01;75.13
75363;DHT22;64122;51.988;5.892;2023-11-21T05:47:51;11.02;75.05
75363;DHT22;64122;51.988;5.892;2023-11-21T05:50:21;11.04;75.14
75363;DHT22;64122;51.988;5.892;2023-11-21T05:52:53;11.02;75.00
75363;DHT22;64122;51.988;5.892;2023-11-21T05:55:24;11.02;75.09
75363;DHT22;64122;51.988;5.892;2023-11-21T05:57:53;11.02;75.17
75363;DHT22;64122;51.988;5.892;2023-11-21T06:00:22;11.05;75.14
75363;DHT22;64122;51.988;5.892;2023-11-21T06:02:53;11.07;75.05
75363;DHT22;64122;51.988;5.892;2023-11-21T06:05:25;11.04;75.16
75363;DHT22;64122;51.988;5.892;2023-11-21T06:07:57;11.04;75.05
75363;DHT22;64122;51.988;5.892;2023-11-21T06:10:27;11.05;75.07
75363;DHT22;64122;51.988;5.892;2023-11-21T06:12:56;11.07;75.07
75363;DHT22;64122;51.988;5.892;2023-11-21T06:15:26;11.08;75.06
75363;DHT22;64122;51.988;5.892;2023-11-21T06:17:55;11.10;75.13
75363;DHT22;64122;51.988;5.892;2023-11-21T06:20:25;11.10;75.16
75363;DHT22;64122;51.988;5.892;2023-11-21T06:22:56;11.11;75.15
75363;DHT22;64122;51.988;5.892;2023-11-21T06:25:29;11.14;75.15
75363;DHT22;64122;51.988;5.892;2023-11-21T06:27:59;11.13;75.14
75363;DHT22;64122;51.988;5.892;2023-11-21T06:30:28;11.15;75.14
75363;DHT22;64122;51.988;5.892;2023-11-21T06:32:58;11.15;75.20
75363;DHT22;64122;51.988;5.892;2023-11-21T06:35:27;11.17;75.19
75363;DHT22;64122;51.988;5.892;2023-11-21T06:38:01;11.16;75.18
75363;DHT22;64122;51.988;5.892;2023-11-21T06:40:30;11.20;75.22
75363;DHT22;64122;51.988;5.892;2023-11-21T06:43:00;11.23;75.10
75363;DHT22;64122;51.988;5.892;2023-11-21T06:45:31;11.24;75.07
75363;DHT22;64122;51.988;5.892;2023-11-21T06:48:00;11.22;75.15
75363;DHT22;64122;51.988;5.892;2023-11-21T06:50:29;11.22;75.20
75363;DHT22;64122;51.988;5.892;2023-11-21T06:53:01;11.22;75.20
75363;DHT22;64122;51.988;5.892;2023-11-21T06:55:33;11.23;75.18
75363;DHT22;64122;51.988;5.892;2023-11-21T06:58:02;11.23;75.16
75363;DHT22;64122;51.988;5.892;2023-11-21T07:00:31;11.23;75.27
75363;DHT22;64122;51.988;5.892;2023-11-21T07:03:00;11.24;75.29
75363;DHT22;64122;51.988;5.892;2023-11-21T07:05:29;11.25;75.34
75363;DHT22;64122;51.988;5.892;2023-11-21T07:08:01;11.26;75.31
75363;DHT22;64122;51.988;5.892;2023-11-21T07:10:30;11.27;75.37
75363;DHT22;64122;51.988;5.892;2023-11-21T07:13:01;11.29;75.33
75363;DHT22;64122;51.988;5.892;2023-11-21T07:15:30;11.32;75.34
75363;DHT22;64122;51.988;5.892;2023-11-21T07:18:00;11.34;75.31
75363;DHT22;64122;51.988;5.892;2023-11-21T07:20:29;11.33;75.28
75363;DHT22;64122;51.988;5.892;2023-11-21T07:23:01;11.33;75.34
75363;DHT22;64122;51.988;5.892;2023-11-21T07:25:31;11.34;75.36
75363;DHT22;64122;51.988;5.892;2023-11-21T07:28:01;11.37;75.39
75363;DHT22;64122;51.988;5.892;2023-11-21T07:30:31;11.38;75.38
75363;DHT22;64122;51.988;5.892;2023-11-21T07:33:01;11.40;75.46
75363;DHT22;64122;51.988;5.892;2023-11-21T07:35:30;11.41;75.32
75363;DHT22;64122;51.988;5.892;2023-11-21T07:38:02;11.41;75.29
75363;DHT22;64122;51.988;5.892;2023-11-21T07:40:32;11.43;75.38
75363;DHT22;64122;51.988;5.892;2023-11-21T07:43:01;11.45;75.36
75363;DHT22;64122;51.988;5.892;2023-11-21T07:45:31;11.46;75.42
75363;DHT22;64122;51.988;5.892;2023-11-21T07:48:01;11.48;75.42
75363;DHT22;64122;51.988;5.892;2023-11-21T07:50:31;11.47;75.35
75363;DHT22;64122;51.988;5.892;2023-11-21T07:53:03;11.49;75.31
75363;DHT22;64122;51.988;5.892;2023-11-21T07:55:32;11.53;75.31
75363;DHT22;64122;51.988;5.892;2023-11-21T07:58:02;11.56;75.36
75363;DHT22;64122;51.988;5.892;2023-11-21T08:00:31;11.61;75.21
75363;DHT22;64122;51.988;5.892;2023-11-21T08:03:01;11.61;74.98
75363;DHT22;64122;51.988;5.892;2023-11-21T08:05:30;11.63;74.99
75363;DHT22;64122;51.988;5.892;2023-11-21T08:08:01;11.67;74.77
75363;DHT22;64122;51.988;5.892;2023-11-21T08:10:31;11.66;74.89
75363;DHT22;64122;51.988;5.892;2023-11-21T08:13:01;11.67;74.96
75363;DHT22;64122;51.988;5.892;2023-11-21T08:15:31;11.69;74.99
75363;DHT22;64122;51.988;5.892;2023-11-21T08:18:00;11.73;74.99
75363;DHT22;64122;51.988;5.892;2023-11-21T08:20:29;11.76;74.89
75363;DHT22;64122;51.988;5.892;2023-11-21T08:22:58;11.77;74.82
75363;DHT22;64122;51.988;5.892;2023-11-21T08:25:31;11.78;74.79
75363;DHT22;64122;51.988;5.892;2023-11-21T08:28:01;11.78;74.94
75363;DHT22;64122;51.988;5.892;2023-11-21T08:30:31;11.83;74.90
75363;DHT22;64122;51.988;5.892;2023-11-21T08:33:01;11.87;74.87
75363;DHT22;64122;51.988;5.892;2023-11-21T08:35:31;11.90;74.74
75363;DHT22;64122;51.988;5.892;2023-11-21T08:38:00;11.96;74.70
75363;DHT22;64122;51.988;5.892;2023-11-21T08:40:32;11.94;74.64
75363;DHT22;64122;51.988;5.892;2023-11-21T08:43:01;11.98;74.71
75363;DHT22;64122;51.988;5.892;2023-11-21T08:45:31;12.02;74.55
75363;DHT22;64122;51.988;5.892;2023-11-21T08:48:00;12.05;74.39
75363;DHT22;64122;51.988;5.892;2023-11-21T08:50:29;12.08;74.28
75363;DHT22;64122;51.988;5.892;2023-11-21T08:52:59;12.13;74.28
75363;DHT22;64122;51.988;5.892;2023-11-21T08:55:28;12.14;74.26
75363;DHT22;64122;51.988;5.892;2023-11-21T08:58:00;12.17;74.25
75363;DHT22;64122;51.988;5.892;2023-11-21T09:00:32;12.20;74.06
75363;DHT22;64122;51.988;5.892;2023-11-21T09:03:01;12.23;74.06
75363;DHT22;64122;51.988;5.892;2023-11-21T09:05:37;12.29;73.92
75363;DHT22;64122;51.988;5.892;2023-11-21T09:08:07;12.35;73.90
75363;DHT22;64122;51.988;5.892;2023-11-21T09:10:36;12.38;73.86
75363;DHT22;64122;51.988;5.892;2023-11-21T09:13:08;12.36;73.91
75363;DHT22;64122;51.988;5.892;2023-11-21T09:15:38;12.36;73.96
75363;DHT22;64122;51.988;5.892;2023-11-21T09:18:08;12.35;74.01
75363;DHT22;64122;51.988;5.892;2023-11-21T09:20:37;12.37;74.01
75363;DHT22;64122;51.988;5.892;2023-11-21T09:23:06;12.38;74.09
75363;DHT22;64122;51.988;5.892;2023-11-21T09:25:36;12.37;74.19
75363;DHT22;64122;51.988;5.892;2023-11-21T09:28:08;12.32;74.28
75363;DHT22;64122;51.988;5.892;2023-11-21T09:30:37;12.34;74.39
75363;DHT22;64122;51.988;5.892;2023-11-21T09:33:07;12.35;74.44
75363;DHT22;64122;51.988;5.892;2023-11-21T09:35:37;12.38;74.26
75363;DHT22;64122;51.988;5.892;2023-11-21T09:38:06;12.43;74.20
75363;DHT22;64122;51.988;5.892;2023-11-21T09:40:37;12.47;74.16
75363;DHT22;64122;51.988;5.892;2023-11-21T09:43:15;12.49;73.99
75363;DHT22;64122;51.988;5.892;2023-11-21T09:45:45;12.53;73.99
75363;DHT22;64122;51.988;5.892;2023-11-21T09:48:17;12.53;73.91
75363;DHT22;64122;51.988;5.892;2023-11-21T09:50:47;12.55;74.12
75363;DHT22;64122;51.988;5.892;2023-11-21T09:53:18;12.56;74.10
75363;DHT22;64122;51.988;5.892;2023-11-21T09:55:49;12.53;74.22
75363;DHT22;64122;51.988;5.892;2023-11-21T09:58:21;12.52;74.41
75363;DHT22;64122;51.988;5.892;2023-11-21T10:00:54;12.60;74.30
75363;DHT22;64122;51.988;5.892;2023-11-21T10:03:23;12.56;74.47
75363;DHT22;64122;51.988;5.892;2023-11-21T10:05:53;12.82;73.99
75363;DHT22;64122;51.988;5.892;2023-11-21T10:08:24;13.08;73.48
75363;DHT22;64122;51.988;5.892;2023-11-21T10:10:54;13.29;73.17
75363;DHT22;64122;51.988;5.892;2023-11-21T10:13:29;13.39;72.92
75363;DHT22;64122;51.988;5.892;2023-11-21T10:16:00;13.40;73.06
75363;DHT22;64122;51.988;5.892;2023-11-21T10:18:32;13.45;72.88
75363;DHT22;64122;51.988;5.892;2023-11-21T10:21:05;13.48;72.65
75363;DHT22;64122;51.988;5.892;2023-11-21T10:23:35;13.43;72.75
75363;DHT22;64122;51.988;5.892;2023-11-21T10:26:06;13.32;72.76
75363;DHT22;64122;51.988;5.892;2023-11-21T10:28:55;13.22;73.04
75363;DHT22;64122;51.988;5.892;2023-11-21T10:31:26;13.17;73.13
75363;DHT22;64122;51.988;5.892;2023-11-21T10:34:10;13.12;73.21
75363;DHT22;64122;51.988;5.892;2023-11-21T10:36:39;13.09;73.30
75363;DHT22;64122;51.988;5.892;2023-11-21T10:39:08;13.11;73.40
75363;DHT22;64122;51.988;5.892;2023-11-21T10:41:39;13.15;73.22
75363;DHT22;64122;51.988;5.892;2023-11-21T10:44:11;13.16;73.06
75363;DHT22;64122;51.988;5.892;2023-11-21T10:46:46;13.16;73.04
75363;DHT22;64122;51.988;5.892;2023-11-21T10:49:17;13.16;73.11
75363;DHT22;64122;51.988;5.892;2023-11-21T10:51:47;13.11;73.11
75363;DHT22;64122;51.988;5.892;2023-11-21T10:54:19;12.96;73.38
75363;DHT22;64122;51.988;5.892;2023-11-21T10:56:51;12.90;73.75
75363;DHT22;64122;51.988;5.892;2023-11-21T10:59:26;12.86;73.96
75363;DHT22;64122;51.988;5.892;2023-11-21T11:01:57;12.84;74.11
75363;DHT22;64122;51.988;5.892;2023-11-21T11:04:30;12.80;74.16
75363;DHT22;64122;51.988;5.892;2023-11-21T11:07:03;12.72;74.36
75363;DHT22;64122;51.988;5.892;2023-11-21T11:09:35;12.72;74.44
75363;DHT22;64122;51.988;5.892;2023-11-21T11:12:06;12.66;74.48
75363;DHT22;64122;51.988;5.892;2023-11-21T11:14:40;12.64;74.54
75363;DHT22;64122;51.988;5.892;2023-11-21T11:17:11;12.61;74.70
75363;DHT22;64122;51.988;5.892;2023-11-21T11:19:42;12.50;74.88
75363;DHT22;64122;51.988;5.892;2023-11-21T11:22:24;12.45;75.03
75363;DHT22;64122;51.988;5.892;2023-11-21T11:25:13;12.45;75.02
75363;DHT22;64122;51.988;5.892;2023-11-21T11:27:54;12.44;75.15
75363;DHT22;64122;51.988;5.892;2023-11-21T11:30:48;12.42;75.16
75363;DHT22;64122;51.988;5.892;2023-11-21T11:33:26;12.44;75.15
75363;DHT22;64122;51.988;5.892;2023-11-21T11:36:05;12.44;75.10
75363;DHT22;64122;51.988;5.892;2023-11-21T11:38:35;12.45;75.18
75363;DHT22;64122;51.988;5.892;2023-11-21T11:41:06;12.44;75.23
75363;DHT22;64122;51.988;5.892;2023-11-21T11:43:36;12.46;75.29
75363;DHT22;64122;51.988;5.892;2023-11-21T11:46:12;12.43;75.41
75363;DHT22;64122;51.988;5.892;2023-11-21T11:48:42;12.41;75.55
75363;DHT22;64122;51.988;5.892;2023-11-21T11:51:12;12.37;75.63
75363;DHT22;64122;51.988;5.892;2023-11-21T11:53:45;12.42;75.76
75363;DHT22;64122;51.988;5.892;2023-11-21T11:56:26;12.46;75.63
75363;DHT22;64122;51.988;5.892;2023-11-21T11:58:58;12.55;75.52
75363;DHT22;64122;51.988;5.892;2023-11-21T12:01:32;12.65;75.32
75363;DHT22;64122;51.988;5.892;2023-11-21T12:04:25;12.73;75.09
75363;DHT22;64122;51.988;5.892;2023-11-21T12:07:05;12.85;74.79
75363;DHT22;64122;51.988;5.892;2023-11-21T12:09:36;12.86;74.64
75363;DHT22;64122;51.988;5.892;2023-11-21T12:12:07;12.82;74.69
75363;DHT22;64122;51.988;5.892;2023-11-21T12:14:37;12.76;74.73
75363;DHT22;64122;51.988;5.892;2023-11-21T12:17:09;12.69;74.82
75363;DHT22;64122;51.988;5.892;2023-11-21T12:19:39;12.63;74.83
75363;DHT22;64122;51.988;5.892;2023-11-21T12:22:08;12.64;74.78
75363;DHT22;64122;51.988;5.892;2023-11-21T12:24:37;12.60;74.86
75363;DHT22;64122;51.988;5.892;2023-11-21T12:27:06;12.50;74.98
75363;DHT22;64122;51.988;5.892;2023-11-21T12:29:36;12.43;74.96
75363;DHT22;64122;51.988;5.892;2023-11-21T12:32:05;12.37;75.02
75363;DHT22;64122;51.988;5.892;2023-11-21T12:34:37;12.33;75.11
75363;DHT22;64122;51.988;5.892;2023-11-21T12:37:07;12.36;75.20
75363;DHT22;64122;51.988;5.892;2023-11-21T12:39:36;12.42;75.09
75363;DHT22;64122;51.988;5.892;2023-11-21T12:42:05;12.44;75.12
75363;DHT22;64122;51.988;5.892;2023-11-21T12:44:35;12.48;75.15
75363;DHT22;64122;51.988;5.892;2023-11-21T12:47:07;12.50;74.96
75363;DHT22;64122;51.988;5.892;2023-11-21T12:49:41;12.44;75.02
75363;DHT22;64122;51.988;5.892;2023-11-21T12:52:11;12.41;75.15
75363;DHT22;64122;51.988;5.892;2023-11-21T12:54:40;12.38;75.18
75363;DHT22;64122;51.988;5.892;2023-11-21T12:57:09;12.40;75.14
75363;DHT22;64122;51.988;5.892;2023-11-21T12:59:39;12.42;75.00
75363;DHT22;64122;51.988;5.892;2023-11-21T13:02:09;12.41;75.03
75363;DHT22;64122;51.988;5.892;2023-11-21T13:04:51;12.42;74.95
75363;DHT22;64122;51.988;5.892;2023-11-21T13:07:23;12.44;74.80
75363;DHT22;64122;51.988;5.892;2023-11-21T13:09:53;12.42;74.86
75363;DHT22;64122;51.988;5.892;2023-11-21T13:12:24;12.38;74.73
75363;DHT22;64122;51.988;5.892;2023-11-21T13:14:53;12.33;74.87
75363;DHT22;64122;51.988;5.892;2023-11-21T13:17:22;12.28;74.89
75363;DHT22;64122;51.988;5.892;2023-11-21T13:19:54;12.23;74.96
75363;DHT22;64122;51.988;5.892;2023-11-21T13:22:24;12.21;75.12
75363;DHT22;64122;51.988;5.892;2023-11-21T13:24:53;12.29;74.99
75363;DHT22;64122;51.988;5.892;2023-11-21T13:27:23;12.31;74.86
75363;DHT22;64122;51.988;5.892;2023-11-21T13:29:52;12.33;74.71
75363;DHT22;64122;51.988;5.892;2023-11-21T13:32:22;12.34;74.61
75363;DHT22;64122;51.988;5.892;2023-11-21T13:34:54;12.35;74.66
75363;DHT22;64122;51.988;5.892;2023-11-21T13:37:25;12.38;74.52
75363;DHT22;64122;51.988;5.892;2023-11-21T13:39:56;12.38;74.51
75363;DHT22;64122;51.988;5.892;2023-11-21T13:42:26;12.41;74.42
75363;DHT22;64122;51.988;5.892;2023-11-21T13:44:56;12.42;74.44
75363;DHT22;64122;51.988;5.892;2023-11-21T13:47:25;12.46;74.43
75363;DHT22;64122;51.988;5.892;2023-11-21T13:49:59;12.45;74.38
75363;DHT22;64122;51.988;5.892;2023-11-21T13:52:29;12.48;74.41
75363;DHT22;64122;51.988;5.892;2023-11-21T13:54:59;12.51;74.35
75363;DHT22;64122;51.988;5.892;2023-11-21T13:57:32;12.37;74.77
75363;DHT22;64122;51.988;5.892;2023-11-21T14:00:02;12.33;74.56
75363;DHT22;64122;51.988;5.892;2023-11-21T14:02:37;12.17;74.84
75363;DHT22;64122;51.988;5.892;2023-11-21T14:05:11;12.06;75.04
75363;DHT22;64122;51.988;5.892;2023-11-21T14:07:40;11.91;75.26
75363;DHT22;64122;51.988;5.892;2023-11-21T14:10:14;11.75;75.58
75363;DHT22;64122;51.988;5.892;2023-11-21T14:12:48;11.68;75.64
75363;DHT22;64122;51.988;5.892;2023-11-21T14:15:17;11.61;75.57
75363;DHT22;64122;51.988;5.892;2023-11-21T14:17:46;11.60;75.51
75363;DHT22;64122;51.988;5.892;2023-11-21T14:20:18;11.56;75.44
75363;DHT22;64122;51.988;5.892;2023-11-21T14:22:48;11.56;75.49
75363;DHT22;64122;51.988;5.892;2023-11-21T14:25:18;11.58;75.46
75363;DHT22;64122;51.988;5.892;2023-11-21T14:27:48;11.59;75.37
75363;DHT22;64122;51.988;5.892;2023-11-21T14:30:18;11.60;75.28
75363;DHT22;64122;51.988;5.892;2023-11-21T14:32:48;11.61;75.18
75363;DHT22;64122;51.988;5.892;2023-11-21T14:35:20;11.58;75.09
75363;DHT22;64122;51.988;5.892;2023-11-21T14:37:50;11.57;74.95
75363;DHT22;64122;51.988;5.892;2023-11-21T14:40:19;11.53;75.11
75363;DHT22;64122;51.988;5.892;2023-11-21T14:42:50;11.56;75.11
75363;DHT22;64122;51.988;5.892;2023-11-21T14:45:19;11.55;75.04
75363;DHT22;64122;51.988;5.892;2023-11-21T14:47:52;11.56;74.92
75363;DHT22;64122;51.988;5.892;2023-11-21T14:50:35;11.53;74.91
75363;DHT22;64122;51.988;5.892;2023-11-21T14:53:19;11.52;74.90
75363;DHT22;64122;51.988;5.892;2023-11-21T14:56:10;11.43;74.87
75363;DHT22;64122;51.988;5.892;2023-11-21T14:58:36;11.40;74.93
75363;DHT22;64122;51.988;5.892;2023-11-21T15:01:06;11.34;75.07
75363;DHT22;64122;51.988;5.892;2023-11-21T15:03:34;11.36;75.14
75363;DHT22;64122;51.988;5.892;2023-11-21T15:06:17;11.27;75.03
75363;DHT22;64122;51.988;5.892;2023-11-21T15:08:53;11.24;75.24
75363;DHT22;64122;51.988;5.892;2023-11-21T15:11:55;11.15;75.39
75363;DHT22;64122;51.988;5.892;2023-11-21T15:14:29;11.07;75.34
75363;DHT22;64122;51.988;5.892;2023-11-21T15:17:00;10.97;75.28
75363;DHT22;64122;51.988;5.892;2023-11-21T15:19:30;10.87;75.20
75363;DHT22;64122;51.988;5.892;2023-11-21T15:22:03;10.84;75.06
75363;DHT22;64122;51.988;5.892;2023-11-21T15:24:33;10.79;75.08
75363;DHT22;64122;51.988;5.892;2023-11-21T15:27:03;10.78;74.92
75363;DHT22;64122;51.988;5.892;2023-11-21T15:29:33;10.75;74.64
75363;DHT22;64122;51.988;5.892;2023-11-21T15:32:03;10.73;74.41
75363;DHT22;64122;51.988;5.892;2023-11-21T15:34:33;10.66;74.29
75363;DHT22;64122;51.988;5.892;2023-11-21T15:37:06;10.60;74.25
75363;DHT22;64122;51.988;5.892;2023-11-21T15:39:37;10.58;74.22
75363;DHT22;64122;51.988;5.892;2023-11-21T15:42:07;10.53;74.22
75363;DHT22;64122;51.988;5.892;2023-11-21T15:44:37;10.44;73.98
75363;DHT22;64122;51.988;5.892;2023-11-21T15:47:06;10.41;74.15
75363;DHT22;64122;51.988;5.892;2023-11-21T15:49:36;10.36;73.97
75363;DHT22;64122;51.988;5.892;2023-11-21T15:52:08;10.33;73.88